createdAt,value
2023-04-18T00:00:55.507Z,818.00
2023-04-18T00:01:55.594Z,819.00
2023-04-18T00:02:55.755Z,818.00
2023-04-18T00:03:55.698Z,817.00
2023-04-18T00:04:55.827Z,816.00
2023-04-18T00:05:55.637Z,814.00
2023-04-18T00:06:55.638Z,813.00
2023-04-18T00:07:55.675Z,813.00
2023-04-18T00:08:55.742Z,810.00
2023-04-18T00:09:55.774Z,808.00
2023-04-18T00:10:55.761Z,804.00
2023-04-18T00:11:55.780Z,802.00
2023-04-18T00:12:55.801Z,801.00
2023-04-18T00:13:55.821Z,802.00
2023-04-18T00:14:55.871Z,804.00
2023-04-18T00:15:55.887Z,804.00
2023-04-18T00:16:55.951Z,800.00
2023-04-18T00:17:55.970Z,800.00
2023-04-18T00:18:55.950Z,801.00
2023-04-18T00:19:56.016Z,803.00
2023-04-18T00:20:55.999Z,805.00
2023-04-18T00:21:56.074Z,803.00
2023-04-18T00:22:56.057Z,800.00
2023-04-18T00:23:56.070Z,797.00
2023-04-18T00:24:56.143Z,795.00
2023-04-18T00:25:56.108Z,795.00
2023-04-18T00:26:56.158Z,794.00
2023-04-18T00:27:56.170Z,796.00
2023-04-18T00:28:56.228Z,792.00
2023-04-18T00:29:56.244Z,790.00
2023-04-18T00:30:56.339Z,790.00
2023-04-18T00:31:56.287Z,794.00
2023-04-18T00:32:56.339Z,796.00
2023-04-18T00:33:56.327Z,795.00
2023-04-18T00:34:56.397Z,792.00
2023-04-18T00:35:56.390Z,790.00
2023-04-18T00:36:56.384Z,788.00
2023-04-18T00:37:56.439Z,786.00
2023-04-18T00:38:56.450Z,786.00
2023-04-18T00:39:56.481Z,785.00
2023-04-18T00:40:56.512Z,783.00
2023-04-18T00:41:56.515Z,783.00
2023-04-18T00:42:56.540Z,784.00
2023-04-18T00:43:56.573Z,787.00
2023-04-18T00:44:56.613Z,789.00
2023-04-18T00:45:56.667Z,787.00
2023-04-18T00:46:56.637Z,786.00
2023-04-18T00:47:56.693Z,783.00
2023-04-18T00:48:56.685Z,780.00
2023-04-18T00:49:56.739Z,781.00
2023-04-18T00:50:56.739Z,782.00
2023-04-18T00:51:56.891Z,780.00
2023-04-18T00:52:56.788Z,780.00
2023-04-18T00:53:56.785Z,780.00
2023-04-18T00:54:56.867Z,779.00
2023-04-18T00:55:56.864Z,779.00
2023-04-18T00:56:56.966Z,778.00
2023-04-18T00:57:56.886Z,776.00
2023-04-18T00:58:56.941Z,775.00
2023-04-18T00:59:56.952Z,775.00
2023-04-18T01:00:56.963Z,775.00
2023-04-18T01:01:57.089Z,778.00
2023-04-18T01:02:57.123Z,778.00
2023-04-18T01:03:57.121Z,776.00
2023-04-18T01:04:57.057Z,773.00
2023-04-18T01:05:57.093Z,773.00
2023-04-18T01:06:57.115Z,770.00
2023-04-18T01:07:57.111Z,772.00
2023-04-18T01:08:57.198Z,769.00
2023-04-18T01:09:57.177Z,770.00
2023-04-18T01:10:57.203Z,770.00
2023-04-18T01:11:57.282Z,768.00
2023-04-18T01:12:57.286Z,768.00
2023-04-18T01:13:57.296Z,767.00
2023-04-18T01:14:57.381Z,767.00
2023-04-18T01:15:57.357Z,767.00
2023-04-18T01:16:57.383Z,766.00
2023-04-18T01:17:57.453Z,765.00
2023-04-18T01:18:57.401Z,762.00
2023-04-18T01:19:57.433Z,762.00
2023-04-18T01:20:57.430Z,763.00
2023-04-18T01:21:57.452Z,762.00
2023-04-18T01:22:57.493Z,763.00
2023-04-18T01:23:57.518Z,762.00
2023-04-18T01:24:57.552Z,761.00
2023-04-18T01:25:57.577Z,760.00
2023-04-18T01:26:57.580Z,762.00
2023-04-18T01:27:57.645Z,765.00
2023-04-18T01:28:57.656Z,763.00
2023-04-18T01:29:57.664Z,760.00
2023-04-18T01:30:57.752Z,760.00
2023-04-18T01:31:57.754Z,759.00
2023-04-18T01:32:57.786Z,761.00
2023-04-18T01:33:57.778Z,764.00
2023-04-18T01:34:57.808Z,764.00
2023-04-18T01:35:57.808Z,760.00
2023-04-18T01:36:57.841Z,759.00
2023-04-18T01:37:57.878Z,762.00
2023-04-18T01:38:57.895Z,760.00
2023-04-18T01:39:57.975Z,760.00
2023-04-18T01:40:57.936Z,761.00
2023-04-18T01:41:57.956Z,763.00
2023-04-18T01:42:57.988Z,762.00
2023-04-18T01:43:57.989Z,757.00
2023-04-18T01:44:58.044Z,755.00
2023-04-18T01:45:58.073Z,757.00
2023-04-18T01:46:58.129Z,755.00
2023-04-18T01:47:58.205Z,754.00
2023-04-18T01:48:58.130Z,755.00
2023-04-18T01:49:58.152Z,754.00
2023-04-18T01:50:58.163Z,756.00
2023-04-18T01:51:58.147Z,753.00
2023-04-18T01:52:58.224Z,751.00
2023-04-18T01:53:58.220Z,749.00
2023-04-18T01:54:58.229Z,747.00
2023-04-18T01:55:58.249Z,745.00
2023-04-18T01:56:58.299Z,745.00
2023-04-18T01:57:58.285Z,745.00
2023-04-18T01:58:58.334Z,746.00
2023-04-18T01:59:58.350Z,746.00
2023-04-18T02:00:58.368Z,743.00
2023-04-18T02:01:58.477Z,743.00
2023-04-18T02:02:58.553Z,743.00
2023-04-18T02:03:58.520Z,743.00
2023-04-18T02:04:58.452Z,741.00
2023-04-18T02:05:58.470Z,739.00
2023-04-18T02:06:58.515Z,740.00
2023-04-18T02:07:58.572Z,741.00
2023-04-18T02:08:58.547Z,740.00
2023-04-18T02:09:58.615Z,735.00
2023-04-18T02:10:58.597Z,735.00
2023-04-18T02:11:58.595Z,734.00
2023-04-18T02:12:58.646Z,731.00
2023-04-18T02:13:58.647Z,731.00
2023-04-18T02:14:58.672Z,730.00
2023-04-18T02:15:58.757Z,728.00
2023-04-18T02:16:58.766Z,727.00
2023-04-18T02:17:58.797Z,728.00
2023-04-18T02:18:58.790Z,732.00
2023-04-18T02:19:58.790Z,732.00
2023-04-18T02:20:58.800Z,730.00
2023-04-18T02:21:58.885Z,732.00
2023-04-18T02:22:58.848Z,734.00
2023-04-18T02:23:58.892Z,731.00
2023-04-18T02:24:58.893Z,727.00
2023-04-18T02:25:58.931Z,727.00
2023-04-18T02:26:58.949Z,726.00
2023-04-18T02:27:58.988Z,722.00
2023-04-18T02:28:59.010Z,722.00
2023-04-18T02:29:59.014Z,722.00
2023-04-18T02:30:59.048Z,722.00
2023-04-18T02:31:59.104Z,719.00
2023-04-18T02:32:59.203Z,721.00
2023-04-18T02:33:59.129Z,721.00
2023-04-18T02:34:59.163Z,721.00
2023-04-18T02:35:59.129Z,725.00
2023-04-18T02:36:59.178Z,725.00
2023-04-18T02:37:59.200Z,725.00
2023-04-18T02:38:59.231Z,723.00
2023-04-18T02:39:59.293Z,724.00
2023-04-18T02:40:59.272Z,725.00
2023-04-18T02:41:59.319Z,727.00
2023-04-18T02:42:59.326Z,728.00
2023-04-18T02:43:59.363Z,728.00
2023-04-18T02:44:59.344Z,729.00
2023-04-18T02:45:59.430Z,728.00
2023-04-18T02:46:59.416Z,727.00
2023-04-18T02:47:59.510Z,729.00
2023-04-18T02:48:59.491Z,728.00
2023-04-18T02:49:59.518Z,725.00
2023-04-18T02:50:59.528Z,723.00
2023-04-18T02:51:59.531Z,721.00
2023-04-18T02:52:59.580Z,719.00
2023-04-18T02:53:59.621Z,719.00
2023-04-18T02:54:59.633Z,721.00
2023-04-18T02:55:59.657Z,721.00
2023-04-18T02:56:59.628Z,719.00
2023-04-18T02:57:59.679Z,720.00
2023-04-18T02:58:59.695Z,720.00
2023-04-18T02:59:59.728Z,720.00
2023-04-18T03:00:59.784Z,719.00
2023-04-18T03:01:59.787Z,717.00
2023-04-18T03:02:59.990Z,719.00
2023-04-18T03:03:59.832Z,717.00
2023-04-18T03:04:59.913Z,715.00
2023-04-18T03:06:00.757Z,714.00
2023-04-18T03:06:59.929Z,715.00
2023-04-18T03:07:59.904Z,713.00
2023-04-18T03:08:59.932Z,712.00
2023-04-18T03:10:00.031Z,713.00
2023-04-18T03:10:59.962Z,708.00
2023-04-18T03:12:00.035Z,709.00
2023-04-18T03:13:00.044Z,709.00
2023-04-18T03:14:00.064Z,708.00
2023-04-18T03:15:00.112Z,706.00
2023-04-18T03:16:00.138Z,705.00
2023-04-18T03:17:00.141Z,707.00
2023-04-18T03:18:00.222Z,708.00
2023-04-18T03:19:00.156Z,709.00
2023-04-18T03:20:00.210Z,708.00
2023-04-18T03:21:00.236Z,711.00
2023-04-18T03:22:00.214Z,710.00
2023-04-18T03:23:00.255Z,710.00
2023-04-18T03:24:00.261Z,708.00
2023-04-18T03:25:00.373Z,708.00
2023-04-18T03:26:00.356Z,709.00
2023-04-18T03:27:00.345Z,707.00
2023-04-18T03:28:00.388Z,707.00
2023-04-18T03:29:00.403Z,706.00
2023-04-18T03:30:00.438Z,707.00
2023-04-18T03:31:00.488Z,706.00
2023-04-18T03:32:00.477Z,705.00
2023-04-18T03:33:00.571Z,706.00
2023-04-18T03:34:00.489Z,706.00
2023-04-18T03:35:00.524Z,703.00
2023-04-18T03:36:00.589Z,701.00
2023-04-18T03:37:00.586Z,700.00
2023-04-18T03:38:00.630Z,699.00
2023-04-18T03:39:00.628Z,696.00
2023-04-18T03:40:00.644Z,695.00
2023-04-18T03:41:00.694Z,696.00
2023-04-18T03:42:00.667Z,697.00
2023-04-18T03:43:00.758Z,697.00
2023-04-18T03:44:00.729Z,698.00
2023-04-18T03:45:00.775Z,696.00
2023-04-18T03:46:00.844Z,695.00
2023-04-18T03:47:00.817Z,693.00
2023-04-18T03:48:01.888Z,694.00
2023-04-18T03:49:00.872Z,698.00
2023-04-18T03:50:00.936Z,697.00
2023-04-18T03:51:00.932Z,693.00
2023-04-18T03:52:00.955Z,690.00
2023-04-18T03:53:00.998Z,687.00
2023-04-18T03:54:00.987Z,690.00
2023-04-18T03:55:01.010Z,690.00
2023-04-18T03:56:00.994Z,688.00
2023-04-18T03:57:01.067Z,690.00
2023-04-18T03:58:01.075Z,692.00
2023-04-18T03:59:01.082Z,689.00
2023-04-18T04:00:01.113Z,687.00
2023-04-18T04:01:01.137Z,687.00
2023-04-18T04:02:01.230Z,690.00
2023-04-18T04:03:01.394Z,688.00
2023-04-18T04:04:01.264Z,689.00
2023-04-18T04:05:01.254Z,694.00
2023-04-18T04:06:01.237Z,694.00
2023-04-18T04:07:01.306Z,692.00
2023-04-18T04:08:01.323Z,692.00
2023-04-18T04:09:01.355Z,691.00
2023-04-18T04:10:01.413Z,690.00
2023-04-18T04:11:01.382Z,687.00
2023-04-18T04:12:01.408Z,689.00
2023-04-18T04:13:01.458Z,688.00
2023-04-18T04:14:01.420Z,690.00
2023-04-18T04:15:01.465Z,690.00
2023-04-18T04:16:01.558Z,691.00
2023-04-18T04:17:01.558Z,690.00
2023-04-18T04:18:01.594Z,687.00
2023-04-18T04:19:01.538Z,683.00
2023-04-18T04:20:01.712Z,681.00
2023-04-18T04:21:01.611Z,684.00
2023-04-18T04:22:01.627Z,686.00
2023-04-18T04:23:01.648Z,687.00
2023-04-18T04:24:01.666Z,692.00
2023-04-18T04:25:01.666Z,694.00
2023-04-18T04:26:01.764Z,690.00
2023-04-18T04:27:01.695Z,689.00
2023-04-18T04:28:01.724Z,687.00
2023-04-18T04:29:01.748Z,688.00
2023-04-18T04:30:01.764Z,688.00
2023-04-18T04:31:01.814Z,688.00
2023-04-18T04:32:01.910Z,686.00
2023-04-18T04:33:02.015Z,685.00
2023-04-18T04:34:02.408Z,680.00
2023-04-18T04:35:01.905Z,679.00
2023-04-18T04:36:01.918Z,680.00
2023-04-18T04:37:01.948Z,685.00
2023-04-18T04:38:01.976Z,686.00
2023-04-18T04:39:01.993Z,686.00
2023-04-18T04:40:02.018Z,685.00
2023-04-18T04:41:02.089Z,685.00
2023-04-18T04:42:02.030Z,687.00
2023-04-18T04:43:02.046Z,688.00
2023-04-18T04:44:02.090Z,687.00
2023-04-18T04:45:02.179Z,686.00
2023-04-18T04:46:02.212Z,685.00
2023-04-18T04:47:02.190Z,685.00
2023-04-18T04:48:02.342Z,684.00
2023-04-18T04:49:02.261Z,684.00
2023-04-18T04:50:02.330Z,684.00
2023-04-18T04:51:02.318Z,685.00
2023-04-18T04:52:02.338Z,685.00
2023-04-18T04:53:02.339Z,684.00
2023-04-18T04:54:02.358Z,684.00
2023-04-18T04:55:02.401Z,684.00
2023-04-18T04:56:02.424Z,684.00
2023-04-18T04:57:02.435Z,684.00
2023-04-18T04:58:02.454Z,684.00
2023-04-18T04:59:02.506Z,684.00
2023-04-18T05:00:02.538Z,682.00
2023-04-18T05:01:02.656Z,681.00
2023-04-18T05:02:02.664Z,680.00
2023-04-18T05:03:02.831Z,685.00
2023-04-18T05:04:02.818Z,683.00
2023-04-18T05:05:02.824Z,683.00
2023-04-18T05:06:02.716Z,680.00
2023-04-18T05:07:02.749Z,679.00
2023-04-18T05:08:02.782Z,681.00
2023-04-18T05:09:02.812Z,679.00
2023-04-18T05:10:02.899Z,682.00
2023-04-18T05:11:02.862Z,683.00
2023-04-18T05:12:02.907Z,683.00
2023-04-18T05:13:02.926Z,682.00
2023-04-18T05:14:02.949Z,681.00
2023-04-18T05:15:02.988Z,680.00
2023-04-18T05:16:02.999Z,678.00
2023-04-18T05:17:03.041Z,678.00
2023-04-18T05:18:03.094Z,677.00
2023-04-18T05:19:03.067Z,676.00
2023-04-18T05:20:03.095Z,677.00
2023-04-18T05:21:03.106Z,677.00
2023-04-18T05:22:03.176Z,674.00
2023-04-18T05:23:03.163Z,674.00
2023-04-18T05:24:03.239Z,674.00
2023-04-18T05:25:03.244Z,671.00
2023-04-18T05:26:03.273Z,673.00
2023-04-18T05:27:03.316Z,671.00
2023-04-18T05:28:03.284Z,672.00
2023-04-18T05:29:03.359Z,671.00
2023-04-18T05:30:03.419Z,671.00
2023-04-18T05:31:03.510Z,674.00
2023-04-18T05:32:03.431Z,675.00
2023-04-18T05:33:03.556Z,676.00
2023-04-18T05:34:03.467Z,676.00
2023-04-18T05:35:03.528Z,677.00
2023-04-18T05:36:03.541Z,678.00
2023-04-18T05:37:03.567Z,683.00
2023-04-18T05:38:03.581Z,736.00
2023-04-18T05:39:03.615Z,727.00
2023-04-18T05:40:03.841Z,744.00
2023-04-18T05:41:03.674Z,786.00
2023-04-18T05:42:03.714Z,808.00
2023-04-18T05:43:03.716Z,830.00
2023-04-18T05:44:05.778Z,837.00
2023-04-18T05:45:04.770Z,846.00
2023-04-18T05:46:03.760Z,953.00
2023-04-18T05:47:03.717Z,944.00
2023-04-18T05:48:03.805Z,980.00
2023-04-18T05:49:03.727Z,986.00
2023-04-18T05:50:03.748Z,995.00
2023-04-18T05:51:03.721Z,1046.00
2023-04-18T05:52:03.698Z,1087.00
2023-04-18T05:53:03.721Z,920.00
2023-04-18T05:54:03.689Z,964.00
2023-04-18T05:55:03.705Z,906.00
2023-04-18T05:56:03.817Z,1080.00
2023-04-18T05:57:04.780Z,873.00
2023-04-18T05:58:03.652Z,866.00
2023-04-18T05:59:03.694Z,847.00
2023-04-18T06:00:03.643Z,877.00
2023-04-18T06:01:03.626Z,861.00
2023-04-18T06:02:03.718Z,865.00
2023-04-18T06:03:03.812Z,887.00
2023-04-18T06:04:03.791Z,877.00
2023-04-18T06:05:03.881Z,939.00
2023-04-18T06:06:03.713Z,937.00
2023-04-18T06:07:03.722Z,952.00
2023-04-18T06:08:03.785Z,1016.00
2023-04-18T06:09:03.787Z,1012.00
2023-04-18T06:10:03.857Z,1088.00
2023-04-18T06:11:03.875Z,1086.00
2023-04-18T06:12:03.968Z,1098.00
2023-04-18T06:13:03.915Z,1121.00
2023-04-18T06:14:03.906Z,1179.00
2023-04-18T06:15:03.931Z,1209.00
2023-04-18T06:16:03.996Z,1238.00
2023-04-18T06:17:03.965Z,1224.00
2023-04-18T06:18:03.965Z,1230.00
2023-04-18T06:19:03.976Z,1258.00
2023-04-18T06:20:04.050Z,1283.00
2023-04-18T06:21:04.088Z,1290.00
2023-04-18T06:22:04.159Z,1380.00
2023-04-18T06:23:04.182Z,1389.00
2023-04-18T06:24:04.252Z,1398.00
2023-04-18T06:25:04.266Z,1486.00
2023-04-18T06:26:04.317Z,1462.00
2023-04-18T06:27:04.352Z,1435.00
2023-04-18T06:28:04.395Z,1446.00
2023-04-18T06:29:04.398Z,1426.00
2023-04-18T06:30:04.439Z,1448.00
2023-04-18T06:31:04.442Z,1508.00
2023-04-18T06:32:04.795Z,1508.00
2023-04-18T06:33:04.475Z,1579.00
2023-04-18T06:34:04.484Z,1567.00
2023-04-18T06:35:04.504Z,1581.00
2023-04-18T06:36:04.521Z,1658.00
2023-04-18T06:37:04.502Z,1674.00
2023-04-18T06:38:04.556Z,1690.00
2023-04-18T06:39:04.522Z,1750.00
2023-04-18T06:40:04.554Z,1805.00
2023-04-18T06:41:04.553Z,1812.00
2023-04-18T06:42:04.569Z,1815.00
2023-04-18T06:43:04.591Z,1806.00
2023-04-18T06:44:04.905Z,1796.00
2023-04-18T06:45:04.890Z,1834.00
2023-04-18T06:46:04.810Z,1664.00
2023-04-18T06:47:04.648Z,1749.00
2023-04-18T06:48:04.729Z,1860.00
2023-04-18T06:49:04.656Z,1854.00
2023-04-18T06:50:04.688Z,1654.00
2023-04-18T06:51:04.717Z,1239.00
2023-04-18T06:52:04.737Z,1056.00
2023-04-18T06:53:04.782Z,958.00
2023-04-18T06:54:04.760Z,828.00
2023-04-18T06:55:04.847Z,843.00
2023-04-18T06:56:04.833Z,929.00
2023-04-18T06:57:04.833Z,935.00
2023-04-18T06:58:04.964Z,871.00
2023-04-18T06:59:04.932Z,861.00
2023-04-18T07:00:04.953Z,836.00
2023-04-18T07:01:05.020Z,907.00
2023-04-18T07:02:05.070Z,1119.00
2023-04-18T07:03:05.092Z,939.00
2023-04-18T07:04:05.110Z,961.00
2023-04-18T07:05:05.047Z,1036.00
2023-04-18T07:06:05.063Z,979.00
2023-04-18T07:07:05.113Z,1058.00
2023-04-18T07:08:05.182Z,1076.00
2023-04-18T07:09:05.202Z,1054.00
2023-04-18T07:10:05.241Z,1009.00
2023-04-18T07:11:05.309Z,1101.00
2023-04-18T07:12:05.288Z,1139.00
2023-04-18T07:13:05.264Z,1004.00
2023-04-18T07:14:05.289Z,1021.00
2023-04-18T07:15:05.313Z,1090.00
2023-04-18T07:16:05.401Z,1085.00
2023-04-18T07:17:05.437Z,1043.00
2023-04-18T07:18:05.364Z,1054.00
2023-04-18T07:19:05.348Z,1073.00
2023-04-18T07:20:05.344Z,1084.00
2023-04-18T07:21:05.390Z,1105.00
2023-04-18T07:22:05.410Z,1108.00
2023-04-18T07:23:05.490Z,1074.00
2023-04-18T07:24:05.525Z,1073.00
2023-04-18T07:25:05.880Z,1103.00
2023-04-18T07:26:05.732Z,1126.00
2023-04-18T07:27:05.670Z,1147.00
2023-04-18T07:28:05.718Z,1151.00
2023-04-18T07:29:05.768Z,1199.00
2023-04-18T07:30:05.789Z,1200.00
2023-04-18T07:31:05.995Z,1205.00
2023-04-18T07:32:08.142Z,1125.00
2023-04-18T07:33:05.925Z,1120.00
2023-04-18T07:34:05.856Z,1040.00
2023-04-18T07:35:05.841Z,1178.00
2023-04-18T07:36:05.835Z,1201.00
2023-04-18T07:37:05.842Z,1207.00
2023-04-18T07:38:05.800Z,1118.00
2023-04-18T07:39:05.791Z,1065.00
2023-04-18T07:40:05.835Z,1060.00
2023-04-18T07:41:06.693Z,1112.00
2023-04-18T07:42:06.352Z,1416.00
2023-04-18T07:43:06.332Z,1440.00
2023-04-18T07:44:05.769Z,1261.00
2023-04-18T07:45:05.790Z,1453.00
2023-04-18T07:46:05.935Z,1346.00
2023-04-18T07:47:05.776Z,1369.00
2023-04-18T07:48:06.049Z,1565.00
2023-04-18T07:49:05.756Z,1609.00
2023-04-18T07:50:05.745Z,1602.00
2023-04-18T07:51:05.722Z,1596.00
2023-04-18T07:52:05.730Z,1596.00
2023-04-18T07:53:05.714Z,1603.00
2023-04-18T07:54:05.746Z,1704.00
2023-04-18T07:55:05.711Z,1749.00
2023-04-18T07:56:05.727Z,1755.00
2023-04-18T07:57:05.685Z,1758.00
2023-04-18T07:58:05.688Z,1763.00
2023-04-18T07:59:05.651Z,1795.00
2023-04-18T08:00:05.687Z,1809.00
2023-04-18T08:01:05.683Z,1806.00
2023-04-18T08:02:05.705Z,1805.00
2023-04-18T08:03:05.743Z,1816.00
2023-04-18T08:04:05.812Z,1831.00
2023-04-18T08:05:05.868Z,1858.00
2023-04-18T08:06:05.645Z,1869.00
2023-04-18T08:07:05.625Z,1869.00
2023-04-18T08:08:05.606Z,1877.00
2023-04-18T08:09:05.629Z,1886.00
2023-04-18T08:10:05.610Z,1902.00
2023-04-18T08:11:05.620Z,1938.00
2023-04-18T08:12:05.671Z,1934.00
2023-04-18T08:13:05.583Z,1944.00
2023-04-18T08:14:05.564Z,1961.00
2023-04-18T08:15:05.610Z,1972.00
2023-04-18T08:16:05.640Z,1972.00
2023-04-18T08:17:05.613Z,1976.00
2023-04-18T08:18:05.723Z,1991.00
2023-04-18T08:19:05.729Z,2022.00
2023-04-18T08:20:05.906Z,2100.00
2023-04-18T08:21:05.818Z,2090.00
2023-04-18T08:22:05.858Z,2082.00
2023-04-18T08:23:09.556Z,2093.00
2023-04-18T08:24:06.904Z,2095.00
2023-04-18T08:25:05.999Z,2090.00
2023-04-18T08:26:05.936Z,2094.00
2023-04-18T08:27:05.846Z,2100.00
2023-04-18T08:28:05.877Z,2084.00
2023-04-18T08:29:05.850Z,2068.00
2023-04-18T08:30:05.829Z,2163.00
2023-04-18T08:31:05.876Z,2170.00
2023-04-18T08:32:05.868Z,2168.00
2023-04-18T08:33:05.876Z,2183.00
2023-04-18T08:34:05.883Z,2221.00
2023-04-18T08:35:05.904Z,2229.00
2023-04-18T08:36:06.408Z,2234.00
2023-04-18T08:37:06.058Z,2212.00
2023-04-18T08:38:06.084Z,2115.00
2023-04-18T08:39:06.140Z,2171.00
2023-04-18T08:40:06.224Z,2245.00
2023-04-18T08:41:06.208Z,2369.00
2023-04-18T08:42:06.273Z,2358.00
2023-04-18T08:43:06.321Z,2340.00
2023-04-18T08:44:06.339Z,2451.00
2023-04-18T08:45:06.392Z,1989.00
2023-04-18T08:46:06.954Z,1338.00
2023-04-18T08:47:06.460Z,1309.00
2023-04-18T08:48:06.505Z,1296.00
2023-04-18T08:49:06.462Z,1368.00
2023-04-18T08:50:06.482Z,1385.00
2023-04-18T08:51:06.889Z,1436.00
2023-04-18T08:52:06.733Z,1498.00
2023-04-18T08:53:06.585Z,1471.00
2023-04-18T08:54:06.643Z,1434.00
2023-04-18T08:55:06.730Z,1228.00
2023-04-18T08:56:06.677Z,1088.00
2023-04-18T08:57:06.740Z,1036.00
2023-04-18T08:58:06.745Z,1008.00
2023-04-18T08:59:06.828Z,1003.00
2023-04-18T09:00:06.867Z,995.00
2023-04-18T09:01:06.979Z,894.00
2023-04-18T09:02:06.941Z,909.00
2023-04-18T09:03:07.167Z,819.00
2023-04-18T09:04:07.014Z,887.00
2023-04-18T09:05:06.944Z,895.00
2023-04-18T09:06:06.999Z,862.00
2023-04-18T09:07:06.984Z,856.00
2023-04-18T09:08:07.117Z,897.00
2023-04-18T09:09:07.086Z,913.00
2023-04-18T09:10:07.166Z,921.00
2023-04-18T09:11:07.185Z,1090.00
2023-04-18T09:12:07.235Z,1078.00
2023-04-18T09:13:07.230Z,1195.00
2023-04-18T09:14:07.287Z,1202.00
2023-04-18T09:15:07.292Z,1235.00
2023-04-18T09:16:07.297Z,1234.00
2023-04-18T09:17:07.352Z,1243.00
2023-04-18T09:18:07.384Z,1236.00
2023-04-18T09:19:07.374Z,1330.00
2023-04-18T09:20:07.376Z,1353.00
2023-04-18T09:21:07.400Z,1329.00
2023-04-18T09:22:07.417Z,1363.00
2023-04-18T09:23:07.456Z,1368.00
2023-04-18T09:24:07.461Z,1315.00
2023-04-18T09:25:07.487Z,1337.00
2023-04-18T09:26:07.533Z,1344.00
2023-04-18T09:27:07.576Z,1428.00
2023-04-18T09:28:07.609Z,1402.00
2023-04-18T09:29:07.619Z,1403.00
2023-04-18T09:30:07.639Z,1461.00
2023-04-18T09:31:07.980Z,1443.00
2023-04-18T09:32:07.717Z,1425.00
2023-04-18T09:33:07.870Z,1433.00
2023-04-18T09:34:07.843Z,1437.00
2023-04-18T09:35:07.906Z,1440.00
2023-04-18T09:36:08.408Z,1446.00
2023-04-18T09:37:08.057Z,1473.00
2023-04-18T09:38:08.078Z,1456.00
2023-04-18T09:39:08.086Z,1429.00
2023-04-18T09:40:08.413Z,1443.00
2023-04-18T09:41:08.470Z,1403.00
2023-04-18T09:42:08.271Z,1473.00
2023-04-18T09:43:08.311Z,1444.00
2023-04-18T09:44:08.365Z,1454.00
2023-04-18T09:45:08.413Z,1465.00
2023-04-18T09:46:08.463Z,1428.00
2023-04-18T09:47:08.435Z,1455.00
2023-04-18T09:48:08.496Z,1456.00
2023-04-18T09:49:10.923Z,1462.00
2023-04-18T09:50:08.762Z,1470.00
2023-04-18T09:51:08.761Z,1516.00
2023-04-18T09:52:08.776Z,1516.00
2023-04-18T09:53:08.830Z,1509.00
2023-04-18T09:54:08.880Z,1521.00
2023-04-18T09:55:08.885Z,1533.00
2023-04-18T09:56:08.932Z,1537.00
2023-04-18T09:57:08.957Z,1543.00
2023-04-18T09:58:08.959Z,1551.00
2023-04-18T09:59:09.090Z,1559.00
2023-04-18T10:00:09.071Z,1565.00
2023-04-18T10:01:09.083Z,1566.00
2023-04-18T10:02:09.161Z,1570.00
2023-04-18T10:03:09.184Z,1575.00
2023-04-18T10:04:09.190Z,1579.00
2023-04-18T10:05:09.158Z,1584.00
2023-04-18T10:06:09.128Z,1589.00
2023-04-18T10:07:09.138Z,1594.00
2023-04-18T10:08:09.195Z,1598.00
2023-04-18T10:09:09.277Z,1600.00
2023-04-18T10:10:09.243Z,1603.00
2023-04-18T10:11:09.432Z,1606.00
2023-04-18T10:12:09.282Z,1606.00
2023-04-18T10:13:09.353Z,1607.00
2023-04-18T10:14:09.362Z,1607.00
2023-04-18T10:15:09.453Z,1609.00
2023-04-18T10:16:09.566Z,1614.00
2023-04-18T10:17:09.545Z,1615.00
2023-04-18T10:18:09.582Z,1611.00
2023-04-18T10:19:09.603Z,1612.00
2023-04-18T10:20:09.650Z,1614.00
2023-04-18T10:21:09.687Z,1614.00
2023-04-18T10:22:09.706Z,1611.00
2023-04-18T10:23:09.758Z,1608.00
2023-04-18T10:24:09.819Z,1604.00
2023-04-18T10:25:09.868Z,1600.00
2023-04-18T10:26:09.930Z,1597.00
2023-04-18T10:27:09.929Z,1596.00
2023-04-18T10:28:09.970Z,1593.00
2023-04-18T10:29:10.030Z,1596.00
2023-04-18T10:30:10.029Z,1598.00
2023-04-18T10:31:10.108Z,1601.00
2023-04-18T10:32:10.149Z,1603.00
2023-04-18T10:33:18.384Z,1605.00
2023-04-18T10:34:11.120Z,1607.00
2023-04-18T10:35:10.184Z,1578.00
2023-04-18T10:36:10.426Z,1558.00
2023-04-18T10:37:10.425Z,1557.00
2023-04-18T10:38:10.138Z,1666.00
2023-04-18T10:39:10.109Z,1567.00
2023-04-18T10:40:10.116Z,1651.00
2023-04-18T10:41:10.457Z,1647.00
2023-04-18T10:42:10.118Z,1718.00
2023-04-18T10:43:10.112Z,1866.00
2023-04-18T10:44:10.131Z,1796.00
2023-04-18T10:45:10.152Z,1795.00
2023-04-18T10:46:23.783Z,1788.00
2023-04-18T10:47:11.261Z,1791.00
2023-04-18T10:48:10.250Z,1655.00
2023-04-18T10:49:10.178Z,1674.00
2023-04-18T10:50:10.223Z,1698.00
2023-04-18T10:51:10.192Z,1785.00
2023-04-18T10:52:11.731Z,1789.00
2023-04-18T10:53:10.164Z,1798.00
2023-04-18T10:54:10.229Z,1792.00
2023-04-18T10:55:10.152Z,1699.00
2023-04-18T10:56:10.154Z,1779.00
2023-04-18T10:57:10.164Z,1825.00
2023-04-18T10:58:10.131Z,1812.00
2023-04-18T10:59:10.110Z,1809.00
2023-04-18T11:00:10.134Z,1804.00
2023-04-18T11:01:10.181Z,1807.00
2023-04-18T11:02:10.163Z,1880.00
2023-04-18T11:03:10.292Z,1947.00
2023-04-18T11:04:10.183Z,1929.00
2023-04-18T11:05:10.071Z,1972.00
2023-04-18T11:06:10.110Z,2003.00
2023-04-18T11:07:10.066Z,2016.00
2023-04-18T11:08:10.059Z,2033.00
2023-04-18T11:09:10.073Z,2079.00
2023-04-18T11:10:10.063Z,2110.00
2023-04-18T11:11:10.051Z,2131.00
2023-04-18T11:12:10.022Z,2127.00
2023-04-18T11:13:10.064Z,2133.00
2023-04-18T11:14:10.004Z,2178.00
2023-04-18T11:15:10.025Z,2178.00
2023-04-18T11:16:10.172Z,2253.00
2023-04-18T11:17:10.009Z,2268.00
2023-04-18T11:18:10.055Z,2251.00
2023-04-18T11:19:09.972Z,2310.00
2023-04-18T11:20:09.992Z,2405.00
2023-04-18T11:21:09.975Z,2337.00
2023-04-18T11:22:10.027Z,2379.00
2023-04-18T11:23:09.943Z,2385.00
2023-04-18T11:24:09.933Z,2388.00
2023-04-18T11:25:09.947Z,2416.00
2023-04-18T11:26:09.959Z,2444.00
2023-04-18T11:27:09.944Z,2437.00
2023-04-18T11:28:09.913Z,2420.00
2023-04-18T11:29:09.882Z,2429.00
2023-04-18T11:30:09.913Z,2440.00
2023-04-18T11:31:10.152Z,2429.00
2023-04-18T11:32:10.035Z,2189.00
2023-04-18T11:33:09.935Z,2334.00
2023-04-18T11:34:09.901Z,2338.00
2023-04-18T11:35:09.862Z,2333.00
2023-04-18T11:36:09.893Z,2325.00
2023-04-18T11:37:09.954Z,2282.00
2023-04-18T11:38:09.854Z,2266.00
2023-04-18T11:39:09.834Z,2254.00
2023-04-18T11:40:09.825Z,2239.00
2023-04-18T11:41:09.843Z,2220.00
2023-04-18T11:42:09.854Z,2206.00
2023-04-18T11:43:09.839Z,2196.00
2023-04-18T11:44:09.808Z,2187.00
2023-04-18T11:45:09.824Z,2176.00
2023-04-18T11:46:09.876Z,2160.00
2023-04-18T11:47:09.821Z,2146.00
2023-04-18T11:48:09.890Z,2131.00
2023-04-18T11:49:09.797Z,2117.00
2023-04-18T11:50:09.774Z,2104.00
2023-04-18T11:51:09.822Z,1940.00
2023-04-18T11:52:09.753Z,1939.00
2023-04-18T11:53:09.765Z,1995.00
2023-04-18T11:54:09.740Z,2004.00
2023-04-18T11:55:09.719Z,1906.00
2023-04-18T11:56:09.723Z,1981.00
2023-04-18T11:57:09.765Z,1988.00
2023-04-18T11:58:09.754Z,1983.00
2023-04-18T11:59:09.782Z,1981.00
2023-04-18T12:00:09.808Z,1975.00
2023-04-18T12:01:09.843Z,1962.00
2023-04-18T12:03:11.791Z,1953.00
2023-04-18T12:04:10.085Z,1951.00
2023-04-18T12:05:10.159Z,1947.00
2023-04-18T12:06:09.900Z,1938.00
2023-04-18T12:07:09.834Z,1921.00
2023-04-18T12:08:09.880Z,1925.00
2023-04-18T12:09:09.843Z,1915.00
2023-04-18T12:10:09.873Z,1908.00
2023-04-18T12:11:09.800Z,1901.00
2023-04-18T12:12:09.836Z,1889.00
2023-04-18T12:13:09.795Z,1886.00
2023-04-18T12:14:09.804Z,1810.00
2023-04-18T12:15:09.808Z,1824.00
2023-04-18T12:16:09.849Z,1838.00
2023-04-18T12:17:09.761Z,1839.00
2023-04-18T12:18:09.799Z,1831.00
2023-04-18T12:19:09.788Z,1820.00